Terminal Aerodrome Forecast
Issued by NWS

Home | Current Version | Previous Version | Text Only | Print | Product List | Glossary On
Versions: 1 2 3 4 5 6 7 8 9 10 11 12 13 14 15 16 17 18
000
FTUS46 KSEW 280524
TAFCLM
TAF
KCLM 280524Z 2806/2906 27010KT P6SM BKN040 OVC080
     FM281100 VRB03KT P6SM -RA OVC040
     FM281500 VRB04KT 6SM -RA OVC025
     FM282000 32008KT P6SM VCSH SCT030 BKN050=

USA.gov is the U.S. government's official web portal to all federal, state and local government web resources and services.